Time;durP1;ratioP1;P1;durP2;ratioP2;P2;SDS_P1;SDS_P2;PMS_P1;PMS_P2;Temp;Humidity;BMP_temperature;BMP_pressure;BME280_temperature;BME280_humidity;BME280_pressure;Samples;Min_cycle;Max_cycle;Signal;HPM_P1;HPM_P2
2023/07/28 00:02:15;;;;;;;4.20;1.30;;;;;;;18.77;67.53;99463.02;104591;1261;61922;-64
2023/07/28 00:04:42;;;;;;;4.30;1.40;;;;;;;18.68;67.64;99466.68;104669;1264;62443;-67
2023/07/28 00:07:09;;;;;;;4.60;1.60;;;;;;;18.63;68.01;99465.39;104593;1259;60286;-67
2023/07/28 00:09:37;;;;;;;3.00;1.10;;;;;;;18.65;68.10;99465.67;104636;1259;59852;-66
2023/07/28 00:12:05;;;;;;;3.60;1.20;;;;;;;18.67;68.12;99459.63;104746;1259;64409;-66
2023/07/28 00:14:32;;;;;;;3.40;1.40;;;;;;;18.65;68.18;99455.59;104629;1259;61294;-65
2023/07/28 00:17:00;;;;;;;6.60;1.40;;;;;;;18.61;68.42;99451.52;104693;1262;63725;-64
2023/07/28 00:19:27;;;;;;;4.40;1.50;;;;;;;18.61;68.45;99447.34;104657;1259;60576;-65
2023/07/28 00:21:56;;;;;;;3.50;1.40;;;;;;;18.60;68.40;99449.74;104585;1259;60411;-64
2023/07/28 00:24:23;;;;;;;3.70;1.50;;;;;;;18.59;68.43;99452.33;104574;1263;63784;-64
2023/07/28 00:26:51;;;;;;;4.10;1.40;;;;;;;18.59;68.23;99449.73;104898;1259;62564;-63
2023/07/28 00:29:18;;;;;;;2.90;1.20;;;;;;;18.56;68.35;99447.52;104559;1260;64838;-65
2023/07/28 00:31:46;;;;;;;4.90;1.60;;;;;;;18.52;68.46;99446.98;104696;1264;60893;-62
2023/07/28 00:34:14;;;;;;;4.80;1.50;;;;;;;18.50;68.54;99448.48;104775;1260;60401;-66
2023/07/28 00:36:42;;;;;;;4.50;1.50;;;;;;;18.48;68.93;99451.42;104861;1256;64977;-63
2023/07/28 00:39:09;;;;;;;5.70;1.70;;;;;;;18.45;69.09;99447.46;104828;1257;61374;-65
2023/07/28 00:41:37;;;;;;;3.20;1.40;;;;;;;18.41;69.57;99446.20;105009;1258;66123;-61
2023/07/28 00:44:41;;;;;;;6.40;1.90;;;;;;;18.39;69.65;99447.77;104787;1256;60770;-64
2023/07/28 00:47:09;;;;;;;5.10;2.20;;;;;;;18.39;69.66;99446.40;104747;1256;62637;-64
2023/07/28 00:49:38;;;;;;;4.20;1.80;;;;;;;18.37;69.71;99443.61;104843;1256;64881;-64
2023/07/28 00:52:07;;;;;;;4.20;1.80;;;;;;;18.34;69.89;99442.40;104906;1256;61368;-62
2023/07/28 00:54:34;;;;;;;4.00;1.90;;;;;;;18.30;69.88;99440.82;104927;1256;62596;-64
2023/07/28 00:57:02;;;;;;;4.90;2.00;;;;;;;18.26;70.12;99442.65;104878;1261;60956;-64
2023/07/28 00:59:30;;;;;;;4.00;1.80;;;;;;;18.26;70.19;99442.94;104969;1261;60442;-63
2023/07/28 01:01:58;;;;;;;4.10;1.90;;;;;;;18.26;70.31;99447.97;105275;1255;64931;-63
2023/07/28 01:04:26;;;;;;;6.60;2.00;;;;;;;18.28;70.26;99447.11;104813;1258;61436;-65
2023/07/28 01:07:09;;;;;;;5.20;2.00;;;;;;;18.30;70.19;99449.31;104722;1259;63748;-62
2023/07/28 01:10:02;;;;;;;5.00;1.80;;;;;;;18.32;70.21;99450.10;104860;1256;60617;-64
2023/07/28 01:12:30;;;;;;;4.80;1.80;;;;;;;18.33;69.77;99449.36;104894;1259;60537;-64
2023/07/28 01:14:57;;;;;;;8.50;2.20;;;;;;;18.33;69.51;99451.04;105029;1256;63711;-64
2023/07/28 01:17:25;;;;;;;5.50;2.30;;;;;;;18.30;69.36;99453.73;104738;1257;61326;-64
2023/07/28 01:19:52;;;;;;;5.30;2.20;;;;;;;18.25;69.48;99459.47;104906;1259;62522;-62
2023/07/28 01:22:47;;;;;;;6.00;2.20;;;;;;;18.22;69.37;99466.10;104989;1258;60547;-63
2023/07/28 01:25:20;;;;;;;6.30;2.30;;;;;;;18.20;69.43;99464.94;104818;1256;60450;-66
2023/07/28 01:27:49;;;;;;;4.80;2.20;;;;;;;18.22;69.30;99467.94;105188;1256;65022;-63
2023/07/28 01:30:16;;;;;;;4.80;2.00;;;;;;;18.25;68.95;99472.38;104746;1256;62100;-62
2023/07/28 01:33:09;;;;;;;5.80;2.20;;;;;;;18.28;68.83;99472.97;104760;1257;63750;-65
2023/07/28 01:35:38;;;;;;;6.70;2.50;;;;;;;18.29;68.38;99471.02;104651;1257;61376;-66
2023/07/28 01:38:05;;;;;;;7.90;2.50;;;;;;;18.28;68.15;99477.65;104954;1260;60446;-64
2023/07/28 01:40:33;;;;;;;8.20;2.70;;;;;;;18.24;67.98;99483.40;104904;1261;66315;-64
2023/07/28 01:43:00;;;;;;;6.20;2.20;;;;;;;18.23;67.66;99493.52;104937;1261;61356;-65
2023/07/28 01:45:28;;;;;;;5.80;2.40;;;;;;;18.23;67.51;99493.89;104928;1256;62466;-65
2023/07/28 01:47:55;;;;;;;5.00;2.30;;;;;;;18.22;67.38;99489.92;105094;1260;60551;-66
2023/07/28 01:50:23;;;;;;;5.70;2.40;;;;;;;18.23;67.72;99489.60;104514;1257;60594;-66
2023/07/28 01:52:51;;;;;;;5.90;2.60;;;;;;;18.25;67.67;99493.96;104945;1260;63631;-65
2023/07/28 01:55:19;;;;;;;5.20;2.20;;;;;;;18.28;67.04;99493.82;104932;1260;61477;-66
2023/07/28 01:57:54;;;;;;;6.30;2.40;;;;;;;18.31;66.40;99494.88;104931;1260;62526;-66
2023/07/28 02:00:22;;;;;;;6.60;2.30;;;;;;;18.31;66.48;99497.04;104975;1257;60499;-63
2023/07/28 02:02:49;;;;;;;5.50;2.50;;;;;;;18.31;66.50;99501.02;104843;1258;60406;-62
2023/07/28 02:05:17;;;;;;;5.60;2.20;;;;;;;18.31;66.11;99506.39;104872;1256;65007;-66
2023/07/28 02:07:45;;;;;;;5.60;2.60;;;;;;;18.30;65.82;99517.61;105468;1256;61352;-64
2023/07/28 02:10:12;;;;;;;5.10;2.40;;;;;;;18.28;65.77;99518.98;104731;1256;63415;-64
2023/07/28 02:12:40;;;;;;;5.70;2.30;;;;;;;18.25;65.93;99522.52;105544;1257;60576;-66
2023/07/28 02:15:10;;;;;;;4.30;2.10;;;;;;;18.23;65.80;99524.68;104756;1256;61739;-70
2023/07/28 02:17:37;;;;;;;6.10;2.10;;;;;;;18.25;65.60;99527.33;104954;1263;65015;-64
2023/07/28 02:20:05;;;;;;;5.70;2.70;;;;;;;18.26;65.61;99524.95;104940;1260;70129;-66
2023/07/28 02:22:33;;;;;;;7.00;2.30;;;;;;;18.24;65.85;99528.67;104964;1259;63770;-62
2023/07/28 02:25:02;;;;;;;4.30;2.00;;;;;;;18.25;65.79;99530.60;104781;1264;60599;-65
2023/07/28 02:28:20;;;;;;;5.90;2.50;;;;;;;18.26;65.62;99530.93;105295;1255;60642;-64
2023/07/28 02:30:47;;;;;;;4.50;2.20;;;;;;;18.29;65.39;99529.61;104996;1261;64921;-64
2023/07/28 02:33:15;;;;;;;5.80;2.60;;;;;;;18.32;65.34;99528.27;104523;1256;69981;-61
2023/07/28 02:35:43;;;;;;;4.90;2.20;;;;;;;18.31;65.37;99523.75;104841;1256;62457;-63
2023/07/28 02:38:10;;;;;;;5.30;2.30;;;;;;;18.29;65.23;99520.84;104918;1256;60498;-64
2023/07/28 02:40:38;;;;;;;4.50;2.00;;;;;;;18.29;65.32;99518.36;104925;1256;60577;-70
2023/07/28 02:43:05;;;;;;;4.90;2.20;;;;;;;18.30;65.29;99518.33;104784;1261;64959;-64
2023/07/28 02:45:33;;;;;;;7.20;2.70;;;;;;;18.31;65.24;99524.66;104999;1256;61311;-63
2023/07/28 02:48:01;;;;;;;4.00;1.90;;;;;;;18.29;65.08;99530.55;104880;1261;62439;-65
2023/07/28 02:50:28;;;;;;;5.50;2.30;;;;;;;18.26;64.79;99532.04;104736;1262;61663;-67
2023/07/28 02:52:56;;;;;;;6.20;2.20;;;;;;;18.26;64.75;99533.80;104840;1261;60360;-65
2023/07/28 02:55:23;;;;;;;4.30;1.70;;;;;;;18.28;64.74;99532.05;104856;1264;67686;-65
2023/07/28 02:57:51;;;;;;;7.60;2.00;;;;;;;18.31;64.63;99537.73;104757;1256;61986;-70
2023/07/28 03:00:18;;;;;;;5.00;2.30;;;;;;;18.31;64.55;99533.91;104953;1258;63912;-64
2023/07/28 03:02:46;;;;;;;6.20;2.10;;;;;;;18.30;64.77;99537.92;104671;1257;60464;-64
2023/07/28 03:05:14;;;;;;;5.20;2.40;;;;;;;18.31;64.78;99543.58;104901;1256;60527;-64
2023/07/28 03:08:05;;;;;;;5.20;2.20;;;;;;;18.33;64.20;99546.51;104859;1256;63684;-63
2023/07/28 03:10:32;;;;;;;4.70;2.00;;;;;;;18.32;64.19;99558.47;105163;1257;61345;-62
2023/07/28 03:13:00;;;;;;;4.80;2.30;;;;;;;18.26;64.49;99557.15;104924;1256;63704;-64
2023/07/28 03:15:28;;;;;;;4.80;2.00;;;;;;;18.25;64.48;99559.48;104910;1260;63272;-66
2023/07/28 03:17:55;;;;;;;4.90;1.90;;;;;;;18.28;64.47;99560.32;104675;1256;60573;-61
2023/07/28 03:20:23;;;;;;;5.20;2.30;;;;;;;18.31;64.36;99563.34;104952;1256;64869;-65
2023/07/28 03:22:50;;;;;;;5.30;1.80;;;;;;;18.32;64.17;99569.80;104979;1259;60575;-63
2023/07/28 03:25:18;;;;;;;5.70;2.10;;;;;;;18.31;64.07;99571.19;104737;1256;62467;-61
2023/07/28 03:27:46;;;;;;;4.60;2.20;;;;;;;18.27;64.19;99571.86;104662;1257;60490;-63
2023/07/28 03:30:16;;;;;;;5.20;2.00;;;;;;;18.28;64.28;99569.08;104966;1259;60483;-64
2023/07/28 03:32:47;;;;;;;5.20;2.10;;;;;;;18.30;64.18;99571.60;104913;1261;74969;-64
2023/07/28 03:35:15;;;;;;;4.70;2.10;;;;;;;18.36;64.53;99573.37;104312;1264;71296;-64
2023/07/28 03:37:47;;;;;;;6.50;2.60;;;;;;;18.41;64.32;99577.33;104802;1258;63947;-66
2023/07/28 03:40:15;;;;;;;5.50;2.20;;;;;;;18.42;64.40;99580.13;104744;1262;60377;-64
2023/07/28 03:42:49;;;;;;;5.50;2.20;;;;;;;18.44;64.34;99583.63;104858;1261;60557;-64
2023/07/28 03:45:16;;;;;;;5.50;2.30;;;;;;;18.46;64.00;99580.98;104671;1264;64918;-65
2023/07/28 03:47:44;;;;;;;5.50;2.20;;;;;;;18.49;63.77;99582.35;104723;1258;62454;-65
2023/07/28 03:50:11;;;;;;;5.00;2.10;;;;;;;18.49;63.84;99586.65;105531;1256;63654;-66
2023/07/28 03:52:39;;;;;;;6.10;2.20;;;;;;;18.45;63.93;99587.09;105164;1256;60493;-64
2023/07/28 03:55:07;;;;;;;6.00;2.30;;;;;;;18.46;64.16;99589.17;104997;1257;60410;-64
2023/07/28 03:57:34;;;;;;;7.00;2.10;;;;;;;18.48;64.03;99590.66;105052;1256;63638;-63
2023/07/28 04:00:02;;;;;;;5.10;2.20;;;;;;;18.51;63.66;99593.97;105109;1256;61339;-62
2023/07/28 04:02:38;;;;;;;5.90;2.70;;;;;;;18.53;63.34;99591.84;104945;1256;67677;-63
2023/07/28 04:05:06;;;;;;;7.70;2.60;;;;;;;18.50;63.28;99594.83;105044;1256;60496;-62
2023/07/28 04:07:34;;;;;;;4.90;2.00;;;;;;;18.48;63.61;99590.46;105706;1260;60500;-64
2023/07/28 04:10:02;;;;;;;5.60;2.10;;;;;;;18.49;63.54;99589.00;105041;1256;65038;-63
2023/07/28 04:12:29;;;;;;;6.00;2.00;;;;;;;18.52;63.58;99589.27;105111;1256;61340;-63
2023/07/28 04:14:57;;;;;;;6.60;2.10;;;;;;;18.53;63.74;99592.47;105107;1259;65509;-62
2023/07/28 04:17:24;;;;;;;6.20;1.80;;;;;;;18.55;63.51;99594.29;105173;1258;60463;-65
2023/07/28 04:19:52;;;;;;;5.40;2.20;;;;;;;18.58;63.56;99597.09;105125;1256;60820;-61
2023/07/28 04:22:21;;;;;;;5.90;2.50;;;;;;;18.59;63.25;99599.09;105186;1259;63889;-62
2023/07/28 04:24:50;;;;;;;6.50;2.00;;;;;;;18.57;63.10;99594.45;105103;1262;60661;-63
2023/07/28 04:27:18;;;;;;;4.80;2.00;;;;;;;18.56;63.13;99593.91;105138;1257;63695;-62
2023/07/28 04:29:45;;;;;;;7.20;2.10;;;;;;;18.54;63.06;99592.67;105095;1256;60571;-65
2023/07/28 04:32:15;;;;;;;5.70;2.60;;;;;;;18.54;62.87;99593.62;105369;1258;60378;-62
2023/07/28 04:34:42;;;;;;;5.10;2.50;;;;;;;18.54;62.95;99592.59;104864;1256;64919;-62
2023/07/28 04:37:13;;;;;;;4.30;2.00;;;;;;;18.56;62.79;99594.36;104996;1260;61378;-62
2023/07/28 04:40:08;;;;;;;5.30;1.90;;;;;;;18.59;62.56;99589.67;104814;1256;66937;-55
2023/07/28 04:42:37;;;;;;;6.40;2.30;;;;;;;18.59;62.53;99585.70;105055;1261;62738;-61
2023/07/28 04:45:06;;;;;;;8.00;2.50;;;;;;;18.60;62.62;99588.58;105339;1261;60495;-59
2023/07/28 04:47:34;;;;;;;6.40;2.10;;;;;;;18.60;62.27;99588.81;105197;1257;64921;-59
2023/07/28 04:50:02;;;;;;;9.40;2.30;;;;;;;18.60;62.23;99585.42;104575;1256;61246;-59
2023/07/28 04:52:49;;;;;;;4.50;1.60;;;;;;;18.62;62.34;99585.88;104966;1256;62953;-60
2023/07/28 04:55:31;;;;;;;7.00;2.10;;;;;;;18.67;62.35;99593.14;105803;1258;60505;-59
2023/07/28 04:57:59;;;;;;;6.50;2.70;;;;;;;18.68;62.18;99593.52;104935;1258;60505;-57
2023/07/28 05:00:28;;;;;;;6.90;2.90;;;;;;;18.67;61.93;99593.80;104535;1256;66371;-56
2023/07/28 05:02:56;;;;;;;7.80;2.30;;;;;;;18.63;61.87;99599.50;104638;1259;63478;-61
2023/07/28 05:05:25;;;;;;;6.10;2.40;;;;;;;18.58;61.91;99596.11;104700;1259;66071;-59
2023/07/28 05:07:52;;;;;;;7.70;2.10;;;;;;;18.59;62.09;99593.86;104778;1259;60467;-61
2023/07/28 05:10:21;;;;;;;7.10;2.40;;;;;;;18.63;61.94;99591.47;104826;1254;60385;-59
2023/07/28 05:12:49;;;;;;;6.60;2.90;;;;;;;18.68;62.13;99587.00;104911;1259;66032;-70
2023/07/28 05:15:20;;;;;;;6.40;2.40;;;;;;;18.71;61.51;99585.42;108624;1254;62584;-62
2023/07/28 05:18:02;;;;;;;4.90;2.30;;;;;;;18.72;61.39;99587.14;105894;1257;66172;-59
2023/07/28 05:20:37;;;;;;;5.80;2.30;;;;;;;18.72;61.31;99583.40;104344;1254;63800;-60
2023/07/28 05:23:10;;;;;;;5.30;2.10;;;;;;;18.75;61.39;99589.02;104613;1269;60464;-57
2023/07/28 05:25:37;;;;;;;4.50;2.30;;;;;;;18.77;61.38;99591.52;104833;1261;67152;-60
2023/07/28 05:28:05;;;;;;;5.90;2.50;;;;;;;18.76;61.16;99591.63;104895;1254;63780;-58
2023/07/28 05:30:34;;;;;;;5.10;2.40;;;;;;;18.78;61.03;99589.46;104971;1256;64411;-65
2023/07/28 05:33:02;;;;;;;9.70;2.90;;;;;;;18.76;60.91;99589.99;104852;1261;60442;-56
2023/07/28 05:35:42;;;;;;;6.20;2.70;;;;;;;18.78;60.76;99590.98;104818;1255;60546;-59
2023/07/28 05:38:10;;;;;;;9.00;2.60;;;;;;;18.83;60.51;99595.49;104953;1256;66025;-62
2023/07/28 05:40:38;;;;;;;5.20;2.60;;;;;;;18.88;60.59;99599.83;104796;1256;63685;-62
2023/07/28 05:43:05;;;;;;;6.90;2.40;;;;;;;18.95;60.30;99598.63;104831;1261;64859;-65
2023/07/28 05:45:33;;;;;;;6.10;2.60;;;;;;;18.97;59.54;99599.94;104884;1259;60562;-62
2023/07/28 05:48:01;;;;;;;5.00;2.40;;;;;;;18.98;59.81;99603.55;104843;1256;60540;-60
2023/07/28 05:50:29;;;;;;;6.60;2.80;;;;;;;19.00;60.13;99603.33;104875;1260;67902;-62
2023/07/28 05:52:57;;;;;;;6.10;2.30;;;;;;;19.06;59.93;99606.07;105202;1256;63496;-62
2023/07/28 05:55:25;;;;;;;6.60;2.60;;;;;;;19.14;59.52;99606.88;105734;1258;64881;-60
2023/07/28 05:57:55;;;;;;;5.40;2.30;;;;;;;19.17;58.99;99611.13;105157;1256;61646;-61
2023/07/28 06:00:23;;;;;;;4.60;2.40;;;;;;;19.16;58.81;99606.04;105107;1261;60642;-62
2023/07/28 06:02:51;;;;;;;5.70;2.50;;;;;;;19.15;59.02;99610.61;104963;1256;67080;-60
2023/07/28 06:05:33;;;;;;;8.80;2.30;;;;;;;19.15;58.98;99612.79;104696;1256;63894;-63
2023/07/28 06:08:00;;;;;;;6.50;2.40;;;;;;;19.19;58.67;99615.15;104945;1256;62892;-60
2023/07/28 06:10:28;;;;;;;7.60;2.60;;;;;;;19.24;58.63;99621.38;104826;1261;60563;-54
2023/07/28 06:12:56;;;;;;;8.80;2.70;;;;;;;19.29;58.55;99623.61;104998;1259;60570;-59
2023/07/28 06:15:23;;;;;;;7.10;2.20;;;;;;;19.31;58.36;99627.59;104974;1261;67050;-58
2023/07/28 06:17:52;;;;;;;5.70;2.30;;;;;;;19.33;58.06;99629.61;104951;1256;63810;-59
2023/07/28 06:20:20;;;;;;;7.60;2.20;;;;;;;19.37;58.06;99627.67;104848;1256;65045;-56
2023/07/28 06:22:47;;;;;;;5.30;2.10;;;;;;;19.44;58.01;99629.45;104671;1261;63061;-56
2023/07/28 06:25:15;;;;;;;6.70;2.00;;;;;;;19.56;57.87;99627.41;104913;1261;60570;-58
2023/07/28 06:27:43;;;;;;;11.60;2.60;;;;;;;19.69;57.04;99624.83;104694;1256;67467;-59
2023/07/28 06:30:13;;;;;;;5.10;2.10;;;;;;;19.77;56.81;99629.80;104980;1256;63536;-65
2023/07/28 06:32:41;;;;;;;7.30;2.30;;;;;;;19.83;56.37;99627.44;104846;1256;65794;-61
2023/07/28 06:35:09;;;;;;;7.20;2.30;;;;;;;19.90;56.20;99635.52;104815;1260;60570;-60
2023/07/28 06:37:38;;;;;;;7.50;2.00;;;;;;;19.94;55.73;99637.81;104745;1256;60563;-59
2023/07/28 06:40:09;;;;;;;3.90;1.60;;;;;;;19.99;55.69;99635.48;105212;1256;67071;-59
2023/07/28 06:42:36;;;;;;;6.40;2.20;;;;;;;20.07;55.98;99638.38;104811;1261;60498;-61
2023/07/28 06:45:06;;;;;;;7.00;2.30;;;;;;;20.14;55.22;99637.19;104791;1259;63340;-63
2023/07/28 06:47:34;;;;;;;6.20;1.90;;;;;;;20.17;54.88;99642.95;105144;1256;60545;-60
2023/07/28 06:50:01;;;;;;;4.90;2.20;;;;;;;20.16;55.12;99645.50;104910;1255;60547;-57
2023/07/28 06:52:29;;;;;;;7.70;1.90;;;;;;;20.15;55.02;99649.44;104857;1261;63655;-57
2023/07/28 06:54:56;;;;;;;5.70;2.00;;;;;;;20.11;54.70;99648.36;104667;1264;61455;-57
2023/07/28 06:57:24;;;;;;;6.10;2.40;;;;;;;20.05;54.76;99650.95;105002;1256;63762;-58
2023/07/28 06:59:52;;;;;;;5.00;1.90;;;;;;;20.01;54.96;99646.50;105326;1261;61687;-63
2023/07/28 07:02:19;;;;;;;4.50;1.80;;;;;;;20.03;55.64;99642.64;104924;1259;60350;-63
2023/07/28 07:04:47;;;;;;;6.20;2.20;;;;;;;20.12;55.70;99651.61;105001;1256;65032;-61
2023/07/28 07:07:15;;;;;;;5.40;2.20;;;;;;;20.19;54.24;99645.49;104954;1256;61434;-57
2023/07/28 07:09:42;;;;;;;7.90;2.10;;;;;;;20.21;54.24;99645.73;104682;1259;63691;-58
2023/07/28 07:12:10;;;;;;;5.00;2.00;;;;;;;20.26;54.60;99647.92;105470;1256;60440;-60
2023/07/28 07:14:38;;;;;;;8.30;2.00;;;;;;;20.33;55.06;99650.64;105275;1260;59551;-59
2023/07/28 07:17:06;;;;;;;5.00;1.80;;;;;;;20.40;54.66;99644.85;105102;1256;65004;-59
2023/07/28 07:19:34;;;;;;;6.40;2.20;;;;;;;20.48;54.20;99645.96;105325;1256;70271;-63
2023/07/28 07:22:02;;;;;;;4.50;1.60;;;;;;;20.55;54.82;99647.70;105015;1256;64711;-62
2023/07/28 07:24:30;;;;;;;4.10;1.70;;;;;;;20.68;54.47;99644.88;105532;1256;60611;-62
2023/07/28 07:26:57;;;;;;;4.40;1.60;;;;;;;20.81;54.15;99650.01;105102;1256;60504;-61
2023/07/28 07:29:25;;;;;;;8.10;2.70;;;;;;;20.93;54.66;99649.62;104953;1257;64844;-56
2023/07/28 07:31:55;;;;;;;5.10;2.00;;;;;;;21.05;53.54;99647.08;105033;1257;61909;-58
2023/07/28 07:34:23;;;;;;;7.40;2.00;;;;;;;21.10;52.80;99656.91;105246;1256;63746;-59
2023/07/28 07:40:15;;;;;;;5.20;2.00;;;;;;;21.11;51.85;99662.66;104523;1267;60498;-58
2023/07/28 07:42:45;;;;;;;6.00;1.80;;;;;;;21.06;51.02;99666.39;104661;1260;63750;-57
2023/07/28 07:45:13;;;;;;;5.50;1.80;;;;;;;21.05;51.24;99672.02;104624;1260;60464;-59
2023/07/28 07:47:41;;;;;;;5.70;1.90;;;;;;;21.08;50.69;99673.61;104764;1263;63742;-58
2023/07/28 07:50:09;;;;;;;4.40;1.60;;;;;;;21.09;50.65;99667.65;104682;1263;60642;-59
2023/07/28 07:52:37;;;;;;;4.80;1.70;;;;;;;21.13;50.68;99676.90;104636;1260;60484;-59
2023/07/28 07:55:10;;;;;;;4.30;1.90;;;;;;;21.19;50.84;99673.27;104476;1260;72747;-58
2023/07/28 07:57:37;;;;;;;5.30;2.30;;;;;;;21.25;51.10;99674.45;104539;1265;60556;-58
2023/07/28 08:00:06;;;;;;;5.00;1.90;;;;;;;21.32;50.68;99675.86;104542;1259;63800;-62
2023/07/28 08:02:38;;;;;;;7.70;2.00;;;;;;;21.37;50.32;99678.86;104573;1261;61020;-60
2023/07/28 08:05:07;;;;;;;5.40;2.00;;;;;;;21.42;50.15;99681.55;104715;1264;60566;-58
2023/07/28 08:07:38;;;;;;;4.60;1.50;;;;;;;21.49;49.97;99684.60;104965;1259;66550;-55
2023/07/28 08:10:28;;;;;;;5.30;1.80;;;;;;;21.55;48.90;99687.88;104769;1265;60383;-59
2023/07/28 08:12:55;;;;;;;4.50;1.90;;;;;;;21.63;49.73;99689.45;104586;1265;370590;-58
2023/07/28 08:16:55;;;;;;;4.90;2.10;;;;;;;21.50;48.85;99689.28;102060;1292;601438;-64
2023/07/28 08:19:22;;;;;;;7.20;2.20;;;;;;;21.74;48.05;99688.88;104432;1266;61212;-61
2023/07/28 08:21:48;;;;;;;3.70;1.40;;;;;;;21.78;48.32;99690.84;104595;1267;59306;-60
2023/07/28 08:24:15;;;;;;;4.60;1.90;;;;;;;21.80;47.69;99689.64;104402;1268;59492;-61
2023/07/28 08:26:42;;;;;;;5.70;1.60;;;;;;;21.83;47.73;99689.94;104994;1265;61464;-56
2023/07/28 08:29:09;;;;;;;6.00;1.60;;;;;;;21.86;47.86;99693.42;104217;1263;227961;-60
2023/07/28 08:31:36;;;;;;;4.20;1.60;;;;;;;21.91;47.22;99692.09;104515;1263;59281;-58
2023/07/28 08:34:03;;;;;;;4.20;1.70;;;;;;;21.96;46.56;99694.24;104598;1268;59190;-56
2023/07/28 08:36:30;;;;;;;3.70;1.40;;;;;;;22.01;45.88;99695.84;104565;1267;63421;-63
2023/07/28 08:38:57;;;;;;;6.90;2.10;;;;;;;22.05;45.64;99700.39;104616;1263;61588;-65
2023/07/28 08:41:23;;;;;;;6.90;2.00;;;;;;;22.09;45.76;99703.20;104799;1266;64059;-59
2023/07/28 08:43:53;;;;;;;3.40;1.40;;;;;;;22.14;45.77;99709.02;104862;1263;59566;-65
2023/07/28 08:46:20;;;;;;;3.70;1.30;;;;;;;22.21;46.32;99707.87;104507;1267;59760;-59
2023/07/28 08:48:47;;;;;;;6.00;1.70;;;;;;;22.29;46.55;99700.13;104354;1270;64416;-62
2023/07/28 08:51:14;;;;;;;4.60;1.90;;;;;;;22.38;46.12;99707.25;104573;1263;62333;-64
2023/07/28 08:53:40;;;;;;;3.80;1.40;;;;;;;22.44;45.17;99707.29;104962;1266;62752;-63
2023/07/28 08:56:08;;;;;;;4.20;1.50;;;;;;;22.50;45.84;99710.96;104766;1265;59557;-58
2023/07/28 08:58:35;;;;;;;4.60;1.80;;;;;;;22.51;45.31;99709.55;104578;1263;59512;-63
2023/07/28 09:01:02;;;;;;;6.20;1.80;;;;;;;22.53;45.39;99714.54;104335;1268;64452;-59
2023/07/28 09:03:29;;;;;;;5.00;1.70;;;;;;;22.57;45.27;99720.73;104500;1263;61435;-61
2023/07/28 09:06:01;;;;;;;4.00;1.50;;;;;;;22.62;44.83;99718.50;104624;1268;62520;-62
2023/07/28 09:08:30;;;;;;;3.50;1.20;;;;;;;22.68;44.09;99718.34;104934;1263;59780;-60
2023/07/28 09:10:58;;;;;;;4.50;1.50;;;;;;;22.73;43.92;99721.30;104866;1263;59680;-64
2023/07/28 09:13:24;;;;;;;4.60;1.60;;;;;;;22.75;44.38;99721.74;104836;1265;64333;-61
2023/07/28 09:15:51;;;;;;;4.10;1.30;;;;;;;22.77;44.05;99720.16;104631;1266;61580;-59
2023/07/28 09:18:18;;;;;;;6.20;1.60;;;;;;;22.80;43.67;99725.66;105057;1266;64089;-57
2023/07/28 09:20:44;;;;;;;6.90;1.80;;;;;;;22.81;43.33;99725.56;105240;1263;59666;-59
2023/07/28 09:23:13;;;;;;;4.80;1.40;;;;;;;22.84;42.94;99724.45;104585;1263;59753;-57
2023/07/28 09:25:40;;;;;;;3.10;1.20;;;;;;;22.88;43.01;99725.64;104560;1267;64224;-59
2023/07/28 09:28:06;;;;;;;3.20;1.20;;;;;;;22.91;42.69;99721.45;104539;1263;62626;-60
2023/07/28 09:30:48;;;;;;;3.50;1.30;;;;;;;22.98;43.00;99717.21;104843;1266;64102;-65
2023/07/28 09:33:35;;;;;;;9.10;1.70;;;;;;;23.05;42.87;99718.52;105372;1259;59695;-59
2023/07/28 09:36:10;;;;;;;5.20;1.40;;;;;;;23.12;42.67;99718.27;104869;1259;59621;-57
2023/07/28 09:38:41;;;;;;;4.40;1.70;;;;;;;23.16;42.45;99714.85;104774;1259;64478;-62
2023/07/28 09:41:11;;;;;;;8.70;1.70;;;;;;;23.18;42.82;99719.33;104851;1260;61641;-62
2023/07/28 09:43:38;;;;;;;4.40;1.60;;;;;;;23.28;42.16;99722.23;105403;1260;64052;-59
2023/07/28 09:46:06;;;;;;;4.60;1.20;;;;;;;23.33;41.07;99722.84;104831;1260;59582;-58
2023/07/28 09:48:33;;;;;;;4.30;1.70;;;;;;;23.35;41.60;99725.20;104669;1260;59683;-62
2023/07/28 09:51:04;;;;;;;4.70;1.50;;;;;;;23.37;41.94;99728.70;104845;1263;64536;-61
2023/07/28 09:53:30;;;;;;;4.60;1.30;;;;;;;23.45;41.43;99729.40;104526;1259;61499;-65
2023/07/28 09:55:57;;;;;;;3.80;1.50;;;;;;;23.54;41.41;99729.88;104736;1260;64036;-63
2023/07/28 09:58:24;;;;;;;3.80;1.40;;;;;;;23.63;42.03;99730.85;104686;1260;60471;-64
2023/07/28 10:04:41;;;;;;;3.50;1.10;;;;;;;23.79;39.82;99731.93;104686;1267;64466;-62
2023/07/28 10:07:08;;;;;;;3.70;1.70;;;;;;;23.78;40.05;99731.05;104786;1260;61516;-59
2023/07/28 10:09:35;;;;;;;3.30;1.20;;;;;;;23.76;40.47;99731.77;104615;1262;64052;-66
2023/07/28 10:12:03;;;;;;;3.60;1.40;;;;;;;23.76;40.60;99730.83;104734;1262;59747;-61
2023/07/28 10:14:34;;;;;;;4.50;1.40;;;;;;;23.79;40.20;99720.34;105140;1257;59640;-58
2023/07/28 10:17:04;;;;;;;3.70;1.30;;;;;;;23.81;39.82;99715.36;105050;1260;64335;-60
2023/07/28 10:19:34;;;;;;;4.00;1.30;;;;;;;23.81;40.63;99723.99;105072;1256;61684;-60
2023/07/28 10:22:02;;;;;;;6.30;1.50;;;;;;;23.84;40.99;99723.56;105055;1261;63846;-61
2023/07/28 10:25:00;;;;;;;3.40;1.20;;;;;;;23.88;40.50;99717.92;105022;1256;59698;-62
2023/07/28 10:27:33;;;;;;;5.60;1.60;;;;;;;23.92;39.64;99719.12;105191;1257;59782;-60
2023/07/28 10:30:01;;;;;;;3.50;1.30;;;;;;;23.95;39.14;99716.56;105024;1260;64285;-61
2023/07/28 10:32:31;;;;;;;4.40;1.70;;;;;;;23.99;38.54;99717.20;105193;1257;60796;-62
2023/07/28 10:35:06;;;;;;;2.90;1.10;;;;;;;24.04;37.64;99712.27;104979;1261;64104;-62
2023/07/28 10:37:33;;;;;;;5.90;1.20;;;;;;;24.07;37.20;99711.61;105026;1257;59651;-61
2023/07/28 10:40:31;;;;;;;4.30;1.50;;;;;;;24.09;37.27;99707.94;104993;1255;59850;-59
2023/07/28 10:42:58;;;;;;;5.00;1.20;;;;;;;24.10;37.29;99705.20;104979;1262;65553;-60
2023/07/28 10:45:27;;;;;;;4.00;1.60;;;;;;;24.14;37.41;99703.07;105216;1257;61728;-58
2023/07/28 10:47:56;;;;;;;3.40;1.10;;;;;;;24.17;37.60;99702.73;106669;1259;63826;-58
2023/07/28 10:50:24;;;;;;;5.30;1.60;;;;;;;24.20;36.37;99702.15;105014;1260;59647;-56
2023/07/28 10:52:51;;;;;;;3.90;1.10;;;;;;;24.21;35.98;99701.69;104865;1262;59544;-56
2023/07/28 10:55:20;;;;;;;4.40;1.40;;;;;;;24.22;34.50;99698.56;104818;1258;74537;-56
2023/07/28 10:57:48;;;;;;;3.00;0.90;;;;;;;24.27;34.34;99704.04;105223;1260;60178;-57
2023/07/28 11:00:17;;;;;;;3.20;1.20;;;;;;;24.34;33.99;99703.27;105007;1260;62591;-55
2023/07/28 11:02:52;;;;;;;4.80;1.20;;;;;;;24.41;33.70;99703.98;105878;1257;59682;-57
2023/07/28 11:05:20;;;;;;;;;;;;;;;24.46;33.11;99702.42;105221;1260;59699;-58
2023/07/28 11:07:46;;;;;;;4.40;1.70;;;;;;;24.50;33.15;99706.89;105119;1260;64415;-56
2023/07/28 11:10:13;;;;;;;3.70;1.20;;;;;;;24.52;33.32;99704.15;104742;1262;60912;-57
2023/07/28 11:12:44;;;;;;;3.70;1.00;;;;;;;24.58;33.81;99701.27;104969;1262;63859;-56
2023/07/28 11:15:11;;;;;;;4.40;1.40;;;;;;;24.67;33.89;99701.96;105445;1257;59647;-57
2023/07/28 11:17:39;;;;;;;3.10;1.20;;;;;;;24.75;33.44;99702.52;105129;1259;61169;-57
2023/07/28 11:20:30;;;;;;;4.10;1.00;;;;;;;24.83;33.83;99703.46;105275;1259;62924;-58
2023/07/28 11:23:00;;;;;;;4.70;1.60;;;;;;;24.90;33.07;99699.13;105146;1256;61668;-55
2023/07/28 11:25:28;;;;;;;3.10;1.10;;;;;;;24.92;32.44;99706.05;105005;1259;63869;-59
2023/07/28 11:27:55;;;;;;;3.70;1.20;;;;;;;24.94;32.24;99703.66;105152;1258;59785;-55
2023/07/28 11:30:22;;;;;;;5.90;1.10;;;;;;;24.95;31.95;99706.55;104984;1256;60339;-53
2023/07/28 11:32:50;;;;;;;5.10;1.40;;;;;;;24.97;32.14;99709.44;105035;1259;64630;-57
2023/07/28 11:35:18;;;;;;;3.80;1.40;;;;;;;25.01;32.93;99713.58;105543;1258;61489;-55
2023/07/28 11:37:47;;;;;;;4.70;1.10;;;;;;;25.12;32.79;99718.78;105051;1257;64431;-55
2023/07/28 11:40:14;;;;;;;7.00;1.80;;;;;;;25.22;31.62;99716.90;105169;1259;59597;-56
2023/07/28 11:42:44;;;;;;;5.60;1.60;;;;;;;25.27;31.76;99716.87;105255;1254;59669;-55
2023/07/28 11:45:12;;;;;;;3.40;1.30;;;;;;;25.32;32.18;99721.45;105150;1259;64408;-57